Argyle, Illinois
Current Conditions -  °F | °C
As of 12:03 PM on Sunday 25 Jan 2015 (Local Time) from KRFD Reporting Station
Overcast Overcast  
Wind Chill: 15°   Ceiling: 3400
Heat Index: 28°   Visibility: 9mi
Dew Point: 19°   Wind: 21mph
Humidity: 69%   Direction: 40°NE
Pressure: 29.86"   Gusts: 30mph
Location:  42.3911°N, 88.9094°W
Report Text: KRFD 251803Z 04018G26KT 9SM BKN034 OVC049 M02/M07 A2986 RMK AO2 PK WND 03026/1757 SNE00 P0000 T10221072
Loading
Personal Weather Stations






























Interactive Weather Map New forecast layout! Learn more

10-Day Weather Forecast

Advertisements
Track Severe Weather on mobile